createdAt,value
2024-01-15T00:00:43.077Z,612.00
2024-01-15T00:01:43.108Z,615.00
2024-01-15T00:02:43.146Z,614.00
2024-01-15T00:03:45.041Z,614.00
2024-01-15T00:04:43.201Z,616.00
2024-01-15T00:05:43.192Z,617.00
2024-01-15T00:06:43.275Z,617.00
2024-01-15T00:07:43.150Z,616.00
2024-01-15T00:08:43.136Z,616.00
2024-01-15T00:09:43.151Z,618.00
2024-01-15T00:10:43.122Z,616.00
2024-01-15T00:11:43.124Z,613.00
2024-01-15T00:12:43.196Z,617.00
2024-01-15T00:13:43.111Z,612.00
2024-01-15T00:14:43.101Z,614.00
2024-01-15T00:15:43.177Z,610.00
2024-01-15T00:16:43.090Z,616.00
2024-01-15T00:17:43.404Z,613.00
2024-01-15T00:18:43.212Z,615.00
2024-01-15T00:19:43.195Z,613.00
2024-01-15T00:20:43.051Z,613.00
2024-01-15T00:21:43.188Z,613.00
2024-01-15T00:22:43.053Z,616.00
2024-01-15T00:23:43.025Z,617.00
2024-01-15T00:24:43.109Z,616.00
2024-01-15T00:25:43.035Z,613.00
2024-01-15T00:26:43.024Z,612.00
2024-01-15T00:27:43.133Z,616.00
2024-01-15T00:28:42.983Z,612.00
2024-01-15T00:29:42.975Z,614.00
2024-01-15T00:30:43.049Z,613.00
2024-01-15T00:31:43.294Z,618.00
2024-01-15T00:32:43.017Z,615.00
2024-01-15T00:33:43.097Z,615.00
2024-01-15T00:34:43.027Z,617.00
2024-01-15T00:35:42.894Z,612.00
2024-01-15T00:36:42.908Z,615.00
2024-01-15T00:37:42.889Z,616.00
2024-01-15T00:38:42.851Z,617.00
2024-01-15T00:39:42.893Z,615.00
2024-01-15T00:40:42.910Z,613.00
2024-01-15T00:41:42.950Z,616.00
2024-01-15T00:42:43.008Z,613.00
2024-01-15T00:43:43.041Z,615.00
2024-01-15T00:44:43.094Z,613.00
2024-01-15T00:45:43.199Z,616.00
2024-01-15T00:46:43.251Z,615.00
2024-01-15T00:47:43.294Z,614.00
2024-01-15T00:48:43.358Z,616.00
2024-01-15T00:49:43.402Z,616.00
2024-01-15T00:50:43.381Z,614.00
2024-01-15T00:51:43.482Z,612.00
2024-01-15T00:52:43.468Z,614.00
2024-01-15T00:53:43.493Z,611.00
2024-01-15T00:54:43.573Z,617.00
2024-01-15T00:55:43.584Z,613.00
2024-01-15T00:56:43.617Z,616.00
2024-01-15T00:57:43.678Z,613.00
2024-01-15T00:58:43.700Z,612.00
2024-01-15T00:59:43.855Z,618.00
2024-01-15T01:00:43.872Z,616.00
2024-01-15T01:01:43.902Z,617.00
2024-01-15T01:02:43.958Z,611.00
2024-01-15T01:03:44.033Z,617.00
2024-01-15T01:04:43.989Z,611.00
2024-01-15T01:05:44.110Z,615.00
2024-01-15T01:06:44.096Z,613.00
2024-01-15T01:07:44.102Z,617.00
2024-01-15T01:08:44.170Z,617.00
2024-01-15T01:09:44.296Z,615.00
2024-01-15T01:10:44.295Z,617.00
2024-01-15T01:11:44.366Z,614.00
2024-01-15T01:12:44.516Z,617.00
2024-01-15T01:13:44.492Z,612.00
2024-01-15T01:14:44.520Z,614.00
2024-01-15T01:15:44.706Z,613.00
2024-01-15T01:16:44.656Z,616.00
2024-01-15T01:17:44.833Z,613.00
2024-01-15T01:18:44.950Z,614.00
2024-01-15T01:19:44.969Z,616.00
2024-01-15T01:20:44.907Z,617.00
2024-01-15T01:21:45.107Z,615.00
2024-01-15T01:22:45.017Z,615.00
2024-01-15T01:23:45.107Z,613.00
2024-01-15T01:24:45.177Z,613.00
2024-01-15T01:25:45.234Z,613.00
2024-01-15T01:26:45.245Z,613.00
2024-01-15T01:27:45.404Z,611.00
2024-01-15T01:28:45.368Z,614.00
2024-01-15T01:29:45.428Z,614.00
2024-01-15T01:30:45.595Z,613.00
2024-01-15T01:31:45.653Z,614.00
2024-01-15T01:32:45.673Z,617.00
2024-01-15T01:33:45.850Z,616.00
2024-01-15T01:34:45.796Z,615.00
2024-01-15T01:35:45.810Z,614.00
2024-01-15T01:36:45.881Z,612.00
2024-01-15T01:37:45.872Z,612.00
2024-01-15T01:38:45.932Z,617.00
2024-01-15T01:39:46.201Z,613.00
2024-01-15T01:40:46.054Z,615.00
2024-01-15T01:41:46.120Z,615.00
2024-01-15T01:42:46.296Z,614.00
2024-01-15T01:43:46.256Z,614.00
2024-01-15T01:44:46.338Z,617.00
2024-01-15T01:45:46.393Z,613.00
2024-01-15T01:46:46.442Z,616.00
2024-01-15T01:47:46.523Z,615.00
2024-01-15T01:48:46.627Z,613.00
2024-01-15T01:49:46.664Z,613.00
2024-01-15T01:50:47.356Z,615.00
2024-01-15T01:51:46.763Z,616.00
2024-01-15T01:52:46.781Z,615.00
2024-01-15T01:53:46.835Z,610.00
2024-01-15T01:54:46.990Z,615.00
2024-01-15T01:55:46.955Z,615.00
2024-01-15T01:56:47.034Z,616.00
2024-01-15T01:57:47.170Z,616.00
2024-01-15T01:58:47.142Z,618.00
2024-01-15T01:59:47.205Z,613.00
2024-01-15T02:00:47.304Z,615.00
2024-01-15T02:01:47.399Z,612.00
2024-01-15T02:02:47.394Z,614.00
2024-01-15T02:03:47.561Z,615.00
2024-01-15T02:04:47.542Z,613.00
2024-01-15T02:05:47.573Z,617.00
2024-01-15T02:06:47.689Z,613.00
2024-01-15T02:07:47.692Z,615.00
2024-01-15T02:08:47.748Z,612.00
2024-01-15T02:09:47.907Z,612.00
2024-01-15T02:10:47.882Z,616.00
2024-01-15T02:11:47.949Z,614.00
2024-01-15T02:12:48.080Z,615.00
2024-01-15T02:13:48.057Z,615.00
2024-01-15T02:14:48.098Z,616.00
2024-01-15T02:15:48.216Z,614.00
2024-01-15T02:16:48.220Z,614.00
2024-01-15T02:17:48.298Z,611.00
2024-01-15T02:18:48.428Z,613.00
2024-01-15T02:19:48.508Z,613.00
2024-01-15T02:20:48.448Z,610.00
2024-01-15T02:21:48.521Z,615.00
2024-01-15T02:22:48.556Z,615.00
2024-01-15T02:23:48.613Z,615.00
2024-01-15T02:24:48.745Z,613.00
2024-01-15T02:25:48.732Z,616.00
2024-01-15T02:26:48.796Z,611.00
2024-01-15T02:27:49.030Z,616.00
2024-01-15T02:28:48.913Z,616.00
2024-01-15T02:29:48.971Z,615.00
2024-01-15T02:30:49.172Z,615.00
2024-01-15T02:31:49.224Z,615.00
2024-01-15T02:32:49.221Z,616.00
2024-01-15T02:33:49.358Z,613.00
2024-01-15T02:34:49.511Z,616.00
2024-01-15T02:35:49.306Z,616.00
2024-01-15T02:36:49.425Z,616.00
2024-01-15T02:37:49.414Z,615.00
2024-01-15T02:38:49.445Z,612.00
2024-01-15T02:39:49.538Z,612.00
2024-01-15T02:40:49.557Z,616.00
2024-01-15T02:41:49.600Z,611.00
2024-01-15T02:42:49.705Z,614.00
2024-01-15T02:43:49.700Z,612.00
2024-01-15T02:44:49.773Z,614.00
2024-01-15T02:45:49.914Z,615.00
2024-01-15T02:46:49.864Z,613.00
2024-01-15T02:47:49.921Z,613.00
2024-01-15T02:48:49.981Z,616.00
2024-01-15T02:49:50.049Z,614.00
2024-01-15T02:50:50.074Z,614.00
2024-01-15T02:51:50.147Z,615.00
2024-01-15T02:52:50.162Z,616.00
2024-01-15T02:53:50.226Z,616.00
2024-01-15T02:54:50.310Z,616.00
2024-01-15T02:55:50.363Z,612.00
2024-01-15T02:56:50.378Z,614.00
2024-01-15T02:57:50.516Z,612.00
2024-01-15T02:58:50.447Z,615.00
2024-01-15T02:59:50.493Z,616.00
2024-01-15T03:00:50.599Z,616.00
2024-01-15T03:01:50.636Z,617.00
2024-01-15T03:02:50.738Z,612.00
2024-01-15T03:03:50.771Z,612.00
2024-01-15T03:04:50.754Z,610.00
2024-01-15T03:05:50.929Z,614.00
2024-01-15T03:06:50.943Z,614.00
2024-01-15T03:07:50.906Z,612.00
2024-01-15T03:08:50.951Z,616.00
2024-01-15T03:09:51.057Z,615.00
2024-01-15T03:10:51.083Z,614.00
2024-01-15T03:11:51.120Z,614.00
2024-01-15T03:12:51.199Z,615.00
2024-01-15T03:13:51.213Z,615.00
2024-01-15T03:14:51.272Z,614.00
2024-01-15T03:15:51.362Z,618.00
2024-01-15T03:16:51.410Z,614.00
2024-01-15T03:17:51.502Z,618.00
2024-01-15T03:18:51.579Z,613.00
2024-01-15T03:19:51.556Z,614.00
2024-01-15T03:20:51.599Z,614.00
2024-01-15T03:21:51.734Z,613.00
2024-01-15T03:22:51.671Z,616.00
2024-01-15T03:23:51.718Z,614.00
2024-01-15T03:24:51.821Z,613.00
2024-01-15T03:25:51.844Z,615.00
2024-01-15T03:26:51.889Z,618.00
2024-01-15T03:27:52.014Z,614.00
2024-01-15T03:28:52.008Z,615.00
2024-01-15T03:29:52.058Z,614.00
2024-01-15T03:30:52.228Z,616.00
2024-01-15T03:31:52.206Z,616.00
2024-01-15T03:32:52.269Z,617.00
2024-01-15T03:33:52.302Z,613.00
2024-01-15T03:34:52.344Z,615.00
2024-01-15T03:35:52.360Z,615.00
2024-01-15T03:36:52.423Z,612.00
2024-01-15T03:37:52.484Z,617.00
2024-01-15T03:38:52.524Z,612.00
2024-01-15T03:39:52.718Z,615.00
2024-01-15T03:40:52.736Z,614.00
2024-01-15T03:41:52.681Z,612.00
2024-01-15T03:42:52.802Z,615.00
2024-01-15T03:43:52.809Z,613.00
2024-01-15T03:44:52.872Z,612.00
2024-01-15T03:45:52.991Z,615.00
2024-01-15T03:46:53.043Z,613.00
2024-01-15T03:47:53.134Z,616.00
2024-01-15T03:48:53.161Z,614.00
2024-01-15T03:49:53.196Z,616.00
2024-01-15T03:50:53.215Z,614.00
2024-01-15T03:51:53.461Z,613.00
2024-01-15T03:52:53.478Z,611.00
2024-01-15T03:53:53.474Z,618.00
2024-01-15T03:54:53.560Z,615.00
2024-01-15T03:55:53.517Z,615.00
2024-01-15T03:56:53.535Z,615.00
2024-01-15T03:57:53.645Z,615.00
2024-01-15T03:58:53.634Z,612.00
2024-01-15T03:59:53.706Z,615.00
2024-01-15T04:00:53.823Z,616.00
2024-01-15T04:01:53.796Z,612.00
2024-01-15T04:02:53.850Z,614.00
2024-01-15T04:03:53.937Z,615.00
2024-01-15T04:04:54.006Z,614.00
2024-01-15T04:05:54.006Z,614.00
2024-01-15T04:06:54.068Z,616.00
2024-01-15T04:07:54.086Z,619.00
2024-01-15T04:08:54.126Z,614.00
2024-01-15T04:09:54.261Z,616.00
2024-01-15T04:10:54.240Z,613.00
2024-01-15T04:11:54.279Z,615.00
2024-01-15T04:12:54.327Z,619.00
2024-01-15T04:13:54.411Z,613.00
2024-01-15T04:14:54.416Z,616.00
2024-01-15T04:15:54.491Z,613.00
2024-01-15T04:16:54.508Z,616.00
2024-01-15T04:17:54.559Z,617.00
2024-01-15T04:18:54.631Z,617.00
2024-01-15T04:19:54.703Z,617.00
2024-01-15T04:20:54.658Z,616.00
2024-01-15T04:21:54.783Z,615.00
2024-01-15T04:22:54.747Z,616.00
2024-01-15T04:23:54.816Z,618.00
2024-01-15T04:24:54.913Z,615.00
2024-01-15T04:25:54.896Z,614.00
2024-01-15T04:26:55.181Z,617.00
2024-01-15T04:27:55.030Z,619.00
2024-01-15T04:28:55.031Z,616.00
2024-01-15T04:29:55.099Z,617.00
2024-01-15T04:30:55.282Z,617.00
2024-01-15T04:31:55.226Z,617.00
2024-01-15T04:32:55.276Z,614.00
2024-01-15T04:33:55.417Z,617.00
2024-01-15T04:34:55.324Z,619.00
2024-01-15T04:35:55.368Z,618.00
2024-01-15T04:36:55.464Z,618.00
2024-01-15T04:37:55.465Z,615.00
2024-01-15T04:38:55.508Z,617.00
2024-01-15T04:39:55.596Z,617.00
2024-01-15T04:40:58.405Z,616.00
2024-01-15T04:41:55.598Z,619.00
2024-01-15T04:42:55.601Z,619.00
2024-01-15T04:43:55.586Z,619.00
2024-01-15T04:44:55.580Z,616.00
2024-01-15T04:45:55.632Z,621.00
2024-01-15T04:46:55.570Z,617.00
2024-01-15T04:47:55.565Z,617.00
2024-01-15T04:48:55.648Z,619.00
2024-01-15T04:49:55.598Z,616.00
2024-01-15T04:50:55.544Z,618.00
2024-01-15T04:51:55.600Z,616.00
2024-01-15T04:52:55.544Z,619.00
2024-01-15T04:53:55.541Z,619.00
2024-01-15T04:54:55.579Z,618.00
2024-01-15T04:55:55.533Z,618.00
2024-01-15T04:56:55.536Z,617.00
2024-01-15T04:57:55.564Z,619.00
2024-01-15T04:58:55.522Z,618.00
2024-01-15T04:59:55.516Z,618.00
2024-01-15T05:01:03.061Z,600.00
2024-01-15T05:02:02.848Z,600.00
2024-01-15T05:03:02.890Z,600.00
2024-01-15T05:04:03.012Z,600.00
2024-01-15T05:05:02.834Z,600.00
2024-01-15T05:06:02.902Z,602.00
2024-01-15T05:07:02.937Z,601.00
2024-01-15T05:08:02.817Z,602.00
2024-01-15T05:09:02.823Z,602.00
2024-01-15T05:10:02.931Z,604.00
2024-01-15T05:11:02.813Z,601.00
2024-01-15T05:12:02.799Z,601.00
2024-01-15T05:13:02.790Z,600.00
2024-01-15T05:14:02.800Z,601.00
2024-01-15T05:15:02.775Z,604.00
2024-01-15T05:16:02.809Z,603.00
2024-01-15T05:17:02.771Z,601.00
2024-01-15T05:18:02.837Z,602.00
2024-01-15T05:19:02.850Z,601.00
2024-01-15T05:20:02.956Z,603.00
2024-01-15T05:21:02.710Z,602.00
2024-01-15T05:22:02.709Z,604.00
2024-01-15T05:23:02.693Z,601.00
2024-01-15T05:24:02.672Z,603.00
2024-01-15T05:25:02.663Z,600.00
2024-01-15T05:26:02.638Z,605.00
2024-01-15T05:27:02.657Z,603.00
2024-01-15T05:28:02.629Z,604.00
2024-01-15T05:29:02.618Z,604.00
2024-01-15T05:30:02.592Z,602.00
2024-01-15T05:31:02.682Z,605.00
2024-01-15T05:32:03.100Z,603.00
2024-01-15T05:33:02.639Z,604.00
2024-01-15T05:34:02.685Z,600.00
2024-01-15T05:35:02.709Z,605.00
2024-01-15T05:36:02.705Z,604.00
2024-01-15T05:37:02.770Z,604.00
2024-01-15T05:38:02.979Z,606.00
2024-01-15T05:39:02.841Z,603.00
2024-01-15T05:40:02.908Z,607.00
2024-01-15T05:41:02.922Z,603.00
2024-01-15T05:42:02.983Z,604.00
2024-01-15T05:43:03.016Z,601.00
2024-01-15T05:44:03.061Z,602.00
2024-01-15T05:45:03.108Z,604.00
2024-01-15T05:46:03.231Z,603.00
2024-01-15T05:47:03.197Z,600.00
2024-01-15T05:48:03.300Z,607.00
2024-01-15T05:49:03.423Z,605.00
2024-01-15T05:50:03.438Z,604.00
2024-01-15T05:51:03.357Z,603.00
2024-01-15T05:52:03.392Z,606.00
2024-01-15T05:53:03.432Z,603.00
2024-01-15T05:54:03.481Z,604.00
2024-01-15T05:55:03.524Z,604.00
2024-01-15T05:56:03.545Z,606.00
2024-01-15T05:57:03.584Z,604.00
2024-01-15T05:58:03.601Z,602.00
2024-01-15T05:59:03.669Z,606.00
2024-01-15T06:00:03.777Z,604.00
2024-01-15T06:01:03.784Z,604.00
2024-01-15T06:02:03.788Z,603.00
2024-01-15T06:03:03.825Z,601.00
2024-01-15T06:04:03.995Z,603.00
2024-01-15T06:05:03.973Z,604.00
2024-01-15T06:06:04.201Z,607.00
2024-01-15T06:07:04.045Z,603.00
2024-01-15T06:08:04.016Z,601.00
2024-01-15T06:09:04.071Z,605.00
2024-01-15T06:10:04.093Z,603.00
2024-01-15T06:11:04.140Z,603.00
2024-01-15T06:12:04.172Z,604.00
2024-01-15T06:13:04.216Z,604.00
2024-01-15T06:14:04.262Z,602.00
2024-01-15T06:15:04.302Z,602.00
2024-01-15T06:16:06.692Z,606.00
2024-01-15T06:17:04.438Z,603.00
2024-01-15T06:18:04.560Z,605.00
2024-01-15T06:19:04.714Z,602.00
2024-01-15T06:20:04.633Z,604.00
2024-01-15T06:21:04.594Z,602.00
2024-01-15T06:22:04.668Z,604.00
2024-01-15T06:23:04.638Z,604.00
2024-01-15T06:24:04.662Z,603.00
2024-01-15T06:25:04.700Z,603.00
2024-01-15T06:26:04.737Z,602.00
2024-01-15T06:27:04.769Z,601.00
2024-01-15T06:28:04.833Z,608.00
2024-01-15T06:29:04.881Z,603.00
2024-01-15T06:30:04.994Z,604.00
2024-01-15T06:31:05.063Z,604.00
2024-01-15T06:32:05.140Z,605.00
2024-01-15T06:33:05.230Z,605.00
2024-01-15T06:34:05.229Z,602.00
2024-01-15T06:35:05.080Z,601.00
2024-01-15T06:36:06.081Z,590.00
2024-01-15T06:37:05.084Z,586.00
2024-01-15T06:38:05.068Z,587.00
2024-01-15T06:39:05.072Z,584.00
2024-01-15T06:40:05.102Z,582.00
2024-01-15T06:41:05.076Z,600.00
2024-01-15T06:42:05.076Z,600.00
2024-01-15T06:43:05.076Z,598.00
2024-01-15T06:44:05.088Z,600.00
2024-01-15T06:45:05.076Z,608.00
2024-01-15T06:46:07.549Z,609.00
2024-01-15T06:47:05.088Z,616.00
2024-01-15T06:48:05.142Z,631.00
2024-01-15T06:49:05.196Z,634.00
2024-01-15T06:50:05.127Z,631.00
2024-01-15T06:51:05.092Z,637.00
2024-01-15T06:52:05.084Z,644.00
2024-01-15T06:53:05.065Z,651.00
2024-01-15T06:54:05.058Z,655.00
2024-01-15T06:55:05.061Z,661.00
2024-01-15T06:56:05.050Z,666.00
2024-01-15T06:57:05.052Z,679.00
2024-01-15T06:58:05.036Z,693.00
2024-01-15T06:59:05.025Z,705.00
2024-01-15T07:00:05.013Z,724.00
2024-01-15T07:01:05.040Z,731.00
2024-01-15T07:02:05.003Z,743.00
2024-01-15T07:03:05.028Z,758.00
2024-01-15T07:04:05.021Z,770.00
2024-01-15T07:05:05.004Z,787.00
2024-01-15T07:06:04.960Z,802.00
2024-01-15T07:07:04.952Z,812.00
2024-01-15T07:08:04.946Z,828.00
2024-01-15T07:09:04.934Z,844.00
2024-01-15T07:10:04.907Z,860.00
2024-01-15T07:11:04.893Z,867.00
2024-01-15T07:12:04.880Z,876.00
2024-01-15T07:13:04.881Z,895.00
2024-01-15T07:14:04.857Z,907.00
2024-01-15T07:15:05.495Z,922.00
2024-01-15T07:16:04.856Z,933.00
2024-01-15T07:17:04.809Z,942.00
2024-01-15T07:18:04.833Z,951.00
2024-01-15T07:19:04.890Z,973.00
2024-01-15T07:20:04.830Z,983.00
2024-01-15T07:21:04.741Z,1002.00
2024-01-15T07:22:04.781Z,1015.00
2024-01-15T07:23:04.713Z,1024.00
2024-01-15T07:24:04.701Z,1039.00
2024-01-15T07:25:04.734Z,1066.00
2024-01-15T07:26:04.670Z,1082.00
2024-01-15T07:27:04.686Z,1080.00
2024-01-15T07:28:04.641Z,1093.00
2024-01-15T07:29:04.636Z,1108.00
2024-01-15T07:30:05.537Z,1125.00
2024-01-15T07:31:05.673Z,1126.00
2024-01-15T07:32:04.590Z,1128.00
2024-01-15T07:33:04.638Z,1130.00
2024-01-15T07:34:04.580Z,1138.00
2024-01-15T07:35:04.541Z,1161.00
2024-01-15T07:36:04.525Z,1162.00
2024-01-15T07:37:04.504Z,1163.00
2024-01-15T07:38:04.482Z,1168.00
2024-01-15T07:39:04.471Z,1165.00
2024-01-15T07:40:04.524Z,1173.00
2024-01-15T07:41:04.453Z,1179.00
2024-01-15T07:42:04.452Z,1174.00
2024-01-15T07:43:04.429Z,1176.00
2024-01-15T07:44:04.419Z,1177.00
2024-01-15T07:45:04.553Z,1174.00
2024-01-15T07:46:04.542Z,1184.00
2024-01-15T07:47:04.506Z,1186.00
2024-01-15T07:48:04.661Z,1183.00
2024-01-15T07:49:04.661Z,1184.00
2024-01-15T07:50:06.391Z,1187.00
2024-01-15T07:51:04.644Z,1187.00
2024-01-15T07:52:04.689Z,1183.00
2024-01-15T07:53:04.725Z,1179.00
2024-01-15T07:54:04.776Z,1189.00
2024-01-15T07:55:05.254Z,1178.00
2024-01-15T07:56:04.836Z,1174.00
2024-01-15T07:57:04.878Z,1172.00
2024-01-15T07:58:11.916Z,1182.00
2024-01-15T07:59:05.924Z,1182.00
2024-01-15T08:00:04.916Z,1182.00
2024-01-15T08:01:04.975Z,1182.00
2024-01-15T08:02:04.904Z,1187.00
2024-01-15T08:03:04.899Z,1187.00
2024-01-15T08:04:04.953Z,1177.00
2024-01-15T08:05:04.944Z,1183.00
2024-01-15T08:06:05.035Z,1172.00
2024-01-15T08:07:04.885Z,1177.00
2024-01-15T08:08:05.854Z,1173.00
2024-01-15T08:09:04.912Z,1165.00
2024-01-15T08:10:04.865Z,1174.00
2024-01-15T08:11:04.810Z,1174.00
2024-01-15T08:12:04.821Z,1169.00
2024-01-15T08:13:04.815Z,1160.00
2024-01-15T08:14:04.805Z,1166.00
2024-01-15T08:15:04.785Z,1160.00
2024-01-15T08:16:04.809Z,1160.00
2024-01-15T08:17:04.827Z,1156.00
2024-01-15T08:18:04.958Z,1159.00
2024-01-15T08:19:05.046Z,1152.00
2024-01-15T08:20:05.079Z,1154.00
2024-01-15T08:21:05.036Z,1152.00
2024-01-15T08:22:05.093Z,1149.00
2024-01-15T08:23:05.154Z,1151.00
2024-01-15T08:24:05.236Z,1197.00
2024-01-15T08:25:05.221Z,1222.00
2024-01-15T08:26:05.255Z,1246.00
2024-01-15T08:27:05.297Z,1257.00
2024-01-15T08:28:05.317Z,1279.00
2024-01-15T08:29:06.978Z,1280.00
2024-01-15T08:30:05.321Z,1282.00
2024-01-15T08:31:07.092Z,1280.00
2024-01-15T08:32:05.324Z,1284.00
2024-01-15T08:33:11.452Z,1291.00
2024-01-15T08:34:07.069Z,1281.00
2024-01-15T08:35:05.352Z,1286.00
2024-01-15T08:36:05.194Z,1295.00
2024-01-15T08:37:05.176Z,1306.00
2024-01-15T08:38:05.176Z,1328.00
2024-01-15T08:39:05.236Z,1334.00
2024-01-15T08:40:06.027Z,1332.00
2024-01-15T08:41:05.131Z,1336.00
2024-01-15T08:42:05.114Z,1339.00
2024-01-15T08:43:05.104Z,1338.00
2024-01-15T08:44:05.094Z,1346.00
2024-01-15T08:45:05.227Z,1350.00
2024-01-15T08:46:05.130Z,1355.00
2024-01-15T08:47:05.559Z,1365.00
2024-01-15T08:48:05.120Z,1356.00
2024-01-15T08:49:05.073Z,1358.00
2024-01-15T08:50:05.035Z,1365.00
2024-01-15T08:51:05.562Z,1373.00
2024-01-15T08:52:04.991Z,1374.00
2024-01-15T08:53:04.989Z,1380.00
2024-01-15T08:54:04.936Z,1383.00
2024-01-15T08:55:05.566Z,1389.00
2024-01-15T08:56:04.914Z,1397.00
2024-01-15T08:57:04.931Z,1389.00
2024-01-15T08:58:04.948Z,1397.00
2024-01-15T08:59:05.007Z,1398.00
2024-01-15T09:00:05.990Z,1407.00
2024-01-15T09:01:05.220Z,1409.00
2024-01-15T09:02:05.153Z,1412.00
2024-01-15T09:03:05.990Z,1414.00
2024-01-15T09:04:05.354Z,1419.00
2024-01-15T09:05:05.508Z,1417.00
2024-01-15T09:06:05.331Z,1416.00
2024-01-15T09:07:05.393Z,1428.00
2024-01-15T09:08:05.427Z,1427.00
2024-01-15T09:09:05.512Z,1426.00
2024-01-15T09:10:05.546Z,1425.00
2024-01-15T09:11:05.594Z,1435.00
2024-01-15T09:12:05.648Z,1431.00
2024-01-15T09:13:05.702Z,1441.00
2024-01-15T09:14:05.741Z,1438.00
2024-01-15T09:15:05.890Z,1435.00
2024-01-15T09:16:06.188Z,1438.00
2024-01-15T09:17:05.889Z,1439.00
2024-01-15T09:18:08.231Z,1442.00
2024-01-15T09:19:05.973Z,1439.00
2024-01-15T09:20:05.900Z,1430.00
2024-01-15T09:21:05.854Z,1424.00
2024-01-15T09:22:05.814Z,1421.00
2024-01-15T09:23:05.798Z,1401.00
2024-01-15T09:24:05.765Z,1366.00
2024-01-15T09:25:05.851Z,1375.00
2024-01-15T09:26:06.578Z,1364.00
2024-01-15T09:27:05.755Z,1351.00
2024-01-15T09:28:05.684Z,1322.00
2024-01-15T09:29:05.662Z,1353.00
2024-01-15T09:30:05.672Z,1313.00
2024-01-15T09:31:05.819Z,1306.00
2024-01-15T09:32:05.689Z,1302.00
2024-01-15T09:33:05.647Z,1301.00
2024-01-15T09:34:06.676Z,1302.00
2024-01-15T09:35:05.563Z,1301.00
2024-01-15T09:36:05.608Z,1303.00
2024-01-15T09:37:05.539Z,1311.00
2024-01-15T09:38:05.527Z,1315.00
2024-01-15T09:39:05.518Z,1318.00
2024-01-15T09:40:05.454Z,1333.00
2024-01-15T09:41:05.428Z,1336.00
2024-01-15T09:42:05.378Z,1341.00
2024-01-15T09:43:05.379Z,1336.00
2024-01-15T09:44:05.280Z,1327.00
2024-01-15T09:45:05.231Z,1343.00
2024-01-15T09:46:05.203Z,1353.00
2024-01-15T09:47:05.095Z,1363.00
2024-01-15T09:48:05.067Z,1377.00
2024-01-15T09:49:05.095Z,1398.00
2024-01-15T09:50:05.077Z,1405.00
2024-01-15T09:51:04.943Z,1426.00
2024-01-15T09:52:09.467Z,1426.00
2024-01-15T09:53:05.830Z,1426.00
2024-01-15T09:54:05.614Z,1427.00
2024-01-15T09:55:04.782Z,1435.00
2024-01-15T09:56:04.568Z,1455.00
2024-01-15T09:57:04.469Z,1488.00
2024-01-15T09:58:04.468Z,1530.00
2024-01-15T09:59:04.305Z,1545.00
2024-01-15T10:00:04.234Z,1587.00
2024-01-15T10:01:07.107Z,1630.00
2024-01-15T10:02:04.062Z,1630.00
2024-01-15T10:03:03.952Z,1630.00
2024-01-15T10:04:03.978Z,1609.00
2024-01-15T10:05:03.887Z,1574.00
2024-01-15T10:06:03.778Z,1548.00
2024-01-15T10:07:03.751Z,1526.00
2024-01-15T10:08:03.607Z,1502.00
2024-01-15T10:09:03.542Z,1496.00
2024-01-15T10:10:03.513Z,1470.00
2024-01-15T10:11:03.442Z,1453.00
2024-01-15T10:12:03.397Z,1425.00
2024-01-15T10:13:03.375Z,1390.00
2024-01-15T10:14:03.307Z,1356.00
2024-01-15T10:15:03.325Z,1351.00
2024-01-15T10:16:03.273Z,1341.00
2024-01-15T10:17:03.165Z,1382.00
2024-01-15T10:18:03.215Z,1438.00
2024-01-15T10:19:03.173Z,1477.00
2024-01-15T10:20:03.045Z,1535.00
2024-01-15T10:21:02.898Z,1573.00
2024-01-15T10:22:02.872Z,1598.00
2024-01-15T10:23:02.729Z,1623.00
2024-01-15T10:24:02.632Z,1651.00
2024-01-15T10:25:02.545Z,1671.00
2024-01-15T10:26:02.427Z,1690.00
2024-01-15T10:27:03.116Z,1702.00
2024-01-15T10:28:02.320Z,1718.00
2024-01-15T10:29:02.099Z,1723.00
2024-01-15T10:30:02.018Z,1722.00
2024-01-15T10:31:02.167Z,1727.00
2024-01-15T10:32:02.063Z,1739.00
2024-01-15T10:33:02.005Z,1742.00
2024-01-15T10:34:01.985Z,1744.00
2024-01-15T10:35:01.988Z,1740.00
2024-01-15T10:36:01.911Z,1743.00
2024-01-15T10:37:01.895Z,1748.00
2024-01-15T10:38:01.854Z,1743.00
2024-01-15T10:39:01.801Z,1735.00
2024-01-15T10:40:01.784Z,1735.00
2024-01-15T10:41:01.743Z,1723.00
2024-01-15T10:42:01.695Z,1734.00
2024-01-15T10:43:01.718Z,1748.00
2024-01-15T10:44:01.620Z,1755.00
2024-01-15T10:45:01.872Z,1775.00
2024-01-15T10:46:01.599Z,1752.00
2024-01-15T10:47:01.465Z,1722.00
2024-01-15T10:48:01.644Z,1682.00
2024-01-15T10:49:01.406Z,1648.00
2024-01-15T10:50:01.576Z,1628.00
2024-01-15T10:51:01.255Z,1607.00
2024-01-15T10:52:01.329Z,1595.00
2024-01-15T10:53:01.206Z,1566.00
2024-01-15T10:54:01.203Z,1540.00
2024-01-15T10:55:05.267Z,1522.00
2024-01-15T10:56:02.152Z,1522.00
2024-01-15T10:57:01.095Z,1513.00
2024-01-15T10:58:01.112Z,1502.00
2024-01-15T10:59:01.220Z,1505.00
2024-01-15T11:00:00.999Z,1499.00
2024-01-15T11:01:01.065Z,1500.00
2024-01-15T11:02:01.011Z,1495.00
2024-01-15T11:03:00.865Z,1494.00
2024-01-15T11:04:00.949Z,1496.00
2024-01-15T11:05:00.859Z,1493.00
2024-01-15T11:06:00.820Z,1494.00
2024-01-15T11:07:00.799Z,1502.00
2024-01-15T11:08:00.748Z,1488.00
2024-01-15T11:09:00.753Z,1503.00
2024-01-15T11:10:00.730Z,1491.00
2024-01-15T11:11:00.707Z,1495.00
2024-01-15T11:12:00.653Z,1496.00
2024-01-15T11:13:00.825Z,1493.00
2024-01-15T11:14:00.643Z,1428.00
2024-01-15T11:15:00.621Z,1384.00
2024-01-15T11:16:00.850Z,1349.00
2024-01-15T11:17:00.676Z,1285.00
2024-01-15T11:18:00.893Z,1254.00
2024-01-15T11:19:01.712Z,1234.00
2024-01-15T11:20:00.809Z,1189.00
2024-01-15T11:21:00.706Z,1162.00
2024-01-15T11:22:00.860Z,1151.00
2024-01-15T11:23:00.708Z,1151.00
2024-01-15T11:24:00.836Z,1168.00
2024-01-15T11:25:00.933Z,1156.00
2024-01-15T11:26:00.960Z,1157.00
2024-01-15T11:27:00.956Z,1155.00
2024-01-15T11:28:01.025Z,1154.00
2024-01-15T11:29:00.984Z,1157.00
2024-01-15T11:30:01.024Z,1152.00
2024-01-15T11:31:01.153Z,1161.00
2024-01-15T11:32:01.273Z,1165.00
2024-01-15T11:33:01.274Z,1180.00
2024-01-15T11:34:01.281Z,1186.00
2024-01-15T11:35:01.450Z,1183.00
2024-01-15T11:36:01.241Z,1185.00
2024-01-15T11:37:01.366Z,1192.00
2024-01-15T11:38:01.301Z,1192.00
2024-01-15T11:39:01.326Z,1208.00
2024-01-15T11:40:01.387Z,1208.00
2024-01-15T11:41:01.380Z,1209.00
2024-01-15T11:42:01.560Z,1219.00
2024-01-15T11:43:01.688Z,1225.00
2024-01-15T11:44:01.460Z,1240.00
2024-01-15T11:45:01.599Z,1244.00
2024-01-15T11:46:01.590Z,1245.00
2024-01-15T11:47:01.553Z,1265.00
2024-01-15T11:48:01.882Z,1259.00
2024-01-15T11:49:01.722Z,1269.00
2024-01-15T11:50:01.779Z,1289.00
2024-01-15T11:51:01.675Z,1294.00
2024-01-15T11:52:01.719Z,1296.00
2024-01-15T11:53:05.419Z,1299.00
2024-01-15T11:54:02.694Z,1299.00
2024-01-15T11:55:01.660Z,1303.00
2024-01-15T11:56:01.623Z,1311.00
2024-01-15T11:57:02.160Z,1329.00
2024-01-15T11:58:01.654Z,1352.00
2024-01-15T11:59:04.427Z,1361.00
2024-01-15T12:00:01.529Z,1378.00
2024-01-15T12:01:01.711Z,1372.00
2024-01-15T12:02:01.455Z,1381.00
2024-01-15T12:03:01.413Z,1392.00
2024-01-15T12:04:01.489Z,1395.00
2024-01-15T12:05:01.414Z,1399.00
2024-01-15T12:06:01.400Z,1399.00
2024-01-15T12:07:01.386Z,1408.00
2024-01-15T12:08:01.272Z,1417.00
2024-01-15T12:09:01.246Z,1416.00
2024-01-15T12:10:01.273Z,1408.00
2024-01-15T12:11:01.343Z,1413.00
2024-01-15T12:12:01.162Z,1407.00
2024-01-15T12:13:01.270Z,1413.00
2024-01-15T12:14:01.154Z,1410.00
2024-01-15T12:15:01.252Z,1408.00
2024-01-15T12:16:01.145Z,1400.00
2024-01-15T12:17:03.649Z,1400.00
2024-01-15T12:18:01.169Z,1401.00
2024-01-15T12:19:01.160Z,1402.00
2024-01-15T12:20:00.998Z,1401.00